createdAt,value
2023-01-13T00:00:17.176Z,1.50
2023-01-13T00:02:44.920Z,1.50
2023-01-13T00:05:12.731Z,1.50
2023-01-13T00:07:40.499Z,1.50
2023-01-13T00:10:11.873Z,1.60
2023-01-13T00:12:43.737Z,1.50
2023-01-13T00:15:12.155Z,1.40
2023-01-13T00:17:39.640Z,1.50
2023-01-13T00:20:08.293Z,1.50
2023-01-13T00:22:36.393Z,1.50
2023-01-13T00:25:04.757Z,1.20
2023-01-13T00:27:32.732Z,1.30
2023-01-13T00:30:00.945Z,1.40
2023-01-13T00:32:31.471Z,1.20
2023-01-13T00:34:59.205Z,1.50
2023-01-13T00:37:27.197Z,1.40
2023-01-13T00:39:55.012Z,1.50
2023-01-13T00:42:40.868Z,1.40
2023-01-13T00:45:08.746Z,1.50
2023-01-13T00:47:36.295Z,1.30
2023-01-13T00:50:04.065Z,1.40
2023-01-13T00:52:33.666Z,1.40
2023-01-13T00:55:01.559Z,1.40
2023-01-13T00:57:29.091Z,1.40
2023-01-13T00:59:56.723Z,1.40
2023-01-13T01:02:26.983Z,1.60
2023-01-13T01:04:55.900Z,1.40
2023-01-13T01:07:23.580Z,1.40
2023-01-13T01:09:51.259Z,1.40
2023-01-13T01:12:18.581Z,0.90
2023-01-13T01:14:46.328Z,1.40
2023-01-13T01:17:16.623Z,1.10
2023-01-13T01:19:44.336Z,1.40
2023-01-13T01:22:11.934Z,1.20
2023-01-13T01:24:39.498Z,1.20
2023-01-13T01:27:06.981Z,1.30
2023-01-13T01:29:34.731Z,1.30
2023-01-13T01:32:02.342Z,1.40
2023-01-13T01:34:29.978Z,1.40
2023-01-13T01:36:57.624Z,1.30
2023-01-13T01:39:25.111Z,1.40
2023-01-13T01:42:10.846Z,1.10
2023-01-13T01:45:04.364Z,1.40
2023-01-13T01:47:32.776Z,1.30
2023-01-13T01:50:03.409Z,1.40
2023-01-13T01:52:43.557Z,1.30
2023-01-13T01:55:16.067Z,2.40
2023-01-13T01:57:52.123Z,1.40
2023-01-13T02:00:19.762Z,1.40
2023-01-13T02:02:50.939Z,1.40
2023-01-13T02:05:19.181Z,1.40
2023-01-13T02:07:50.230Z,1.40
2023-01-13T02:10:24.105Z,1.40
2023-01-13T02:12:53.042Z,0.60
2023-01-13T02:15:42.810Z,1.50
2023-01-13T02:18:35.144Z,1.40
2023-01-13T02:21:17.334Z,1.40
2023-01-13T02:24:21.829Z,1.10
2023-01-13T02:27:23.414Z,1.20
2023-01-13T02:30:24.473Z,1.50
2023-01-13T02:33:08.390Z,1.50
2023-01-13T02:35:47.966Z,1.40
2023-01-13T02:38:20.439Z,1.40
2023-01-13T02:40:59.757Z,1.50
2023-01-13T02:43:55.142Z,1.50
2023-01-13T02:46:30.346Z,1.50
2023-01-13T02:49:07.039Z,2.00
2023-01-13T02:51:38.794Z,1.50
2023-01-13T02:54:17.825Z,1.50
2023-01-13T02:56:51.344Z,0.30
2023-01-13T02:59:21.111Z,1.50
2023-01-13T03:01:50.453Z,1.60
2023-01-13T03:04:47.242Z,1.50
2023-01-13T03:07:46.578Z,1.60
2023-01-13T03:10:50.164Z,0.10
2023-01-13T03:13:33.372Z,1.50
2023-01-13T03:16:21.006Z,1.50
2023-01-13T03:19:27.891Z,1.40
2023-01-13T03:22:26.581Z,1.60
2023-01-13T03:25:07.515Z,1.70
2023-01-13T03:27:45.266Z,1.60
2023-01-13T03:30:35.746Z,1.80
2023-01-13T03:33:18.159Z,1.40
2023-01-13T03:35:52.096Z,1.80
2023-01-13T03:38:27.197Z,1.30
2023-01-13T03:40:59.755Z,1.70
2023-01-13T03:43:55.791Z,1.70
2023-01-13T03:46:44.804Z,1.60
2023-01-13T03:49:17.742Z,1.60
2023-01-13T03:51:50.799Z,1.60
2023-01-13T03:54:20.043Z,1.60
2023-01-13T03:56:52.585Z,1.70
2023-01-13T03:59:26.618Z,1.60
2023-01-13T04:02:23.396Z,2.00
2023-01-13T04:05:03.232Z,1.70
2023-01-13T04:07:44.520Z,1.30
2023-01-13T04:10:14.267Z,2.10
2023-01-13T04:13:16.953Z,1.50
2023-01-13T04:15:49.211Z,1.60
2023-01-13T04:18:22.653Z,1.60
2023-01-13T04:20:52.672Z,1.60
2023-01-13T04:23:21.357Z,1.60
2023-01-13T04:25:49.615Z,1.60
2023-01-13T04:28:18.166Z,1.60
2023-01-13T04:30:46.068Z,1.60
2023-01-13T04:33:14.683Z,1.70
2023-01-13T04:35:42.320Z,1.60
2023-01-13T04:38:15.210Z,1.50
2023-01-13T04:40:42.915Z,0.30
2023-01-13T04:43:10.554Z,1.60
2023-01-13T04:45:38.251Z,1.50
2023-01-13T04:48:05.928Z,1.50
2023-01-13T04:50:33.572Z,1.50
2023-01-13T04:53:01.823Z,1.60
2023-01-13T04:55:29.916Z,1.60
2023-01-13T04:58:10.994Z,1.40
2023-01-13T05:00:38.774Z,1.30
2023-01-13T05:03:06.283Z,1.60
2023-01-13T05:05:33.978Z,1.70
2023-01-13T05:08:01.381Z,1.10
2023-01-13T05:10:28.816Z,1.70
2023-01-13T05:13:14.423Z,1.70
2023-01-13T05:16:00.536Z,1.50
2023-01-13T05:18:29.836Z,1.60
2023-01-13T05:20:57.815Z,1.50
2023-01-13T05:23:43.720Z,1.60
2023-01-13T05:26:11.253Z,1.40
2023-01-13T05:28:38.655Z,1.60
2023-01-13T05:31:06.476Z,1.60
2023-01-13T05:33:36.402Z,1.90
2023-01-13T05:36:04.561Z,1.50
2023-01-13T05:38:32.263Z,1.50
2023-01-13T05:41:19.104Z,2.00
2023-01-13T05:43:47.035Z,1.60
2023-01-13T05:46:15.143Z,1.10
2023-01-13T05:48:43.971Z,1.60
2023-01-13T05:51:13.133Z,1.60
2023-01-13T05:53:43.859Z,1.50
2023-01-13T05:56:11.992Z,1.50
2023-01-13T05:58:39.675Z,1.60
2023-01-13T06:01:09.272Z,1.60
2023-01-13T06:03:37.983Z,1.70
2023-01-13T06:06:06.220Z,1.60
2023-01-13T06:08:36.948Z,1.60
2023-01-13T06:11:05.977Z,1.60
2023-01-13T06:13:33.535Z,1.60
2023-01-13T06:16:01.521Z,1.60
2023-01-13T06:18:29.375Z,1.60
2023-01-13T06:20:57.753Z,2.80
2023-01-13T06:23:25.499Z,1.60
2023-01-13T06:26:28.461Z,1.60
2023-01-13T06:28:56.426Z,1.70
2023-01-13T06:31:25.447Z,1.70
2023-01-13T06:33:59.279Z,1.60
2023-01-13T06:36:32.679Z,1.50
2023-01-13T06:39:03.086Z,1.80
2023-01-13T06:41:51.971Z,1.90
2023-01-13T06:44:20.729Z,1.80
2023-01-13T06:46:48.875Z,1.80
2023-01-13T06:49:16.525Z,1.80
2023-01-13T06:51:44.030Z,1.80
2023-01-13T06:54:11.596Z,1.70
2023-01-13T06:56:39.360Z,1.80
2023-01-13T06:59:07.018Z,1.80
2023-01-13T07:01:34.695Z,1.80
2023-01-13T07:04:02.795Z,1.80
2023-01-13T07:06:30.536Z,1.90
2023-01-13T07:08:58.081Z,1.30
2023-01-13T07:11:25.747Z,1.90
2023-01-13T07:14:11.554Z,1.90
2023-01-13T07:16:39.111Z,1.70
2023-01-13T07:19:06.709Z,1.90
2023-01-13T07:21:37.174Z,1.80
2023-01-13T07:24:05.168Z,0.50
2023-01-13T07:26:32.687Z,1.90
2023-01-13T07:29:01.194Z,2.00
2023-01-13T07:31:28.929Z,2.10
2023-01-13T07:33:56.564Z,1.90
2023-01-13T07:36:27.053Z,1.70
2023-01-13T07:38:57.800Z,1.90
2023-01-13T07:41:44.258Z,2.10
2023-01-13T07:44:12.145Z,2.10
2023-01-13T07:46:40.171Z,2.30
2023-01-13T07:49:09.521Z,1.90
2023-01-13T07:51:42.100Z,2.20
2023-01-13T07:54:12.960Z,2.20
2023-01-13T07:56:40.506Z,2.20
2023-01-13T07:59:08.000Z,2.10
2023-01-13T08:01:35.783Z,2.20
2023-01-13T08:04:03.497Z,2.10
2023-01-13T08:06:31.143Z,2.20
2023-01-13T08:08:59.168Z,2.40
2023-01-13T08:11:26.667Z,2.40
2023-01-13T08:13:57.920Z,2.40
2023-01-13T08:16:25.654Z,1.80
2023-01-13T08:18:53.224Z,2.40
2023-01-13T08:21:20.797Z,2.50
2023-01-13T08:23:48.243Z,2.40
2023-01-13T08:26:19.412Z,2.70
2023-01-13T08:28:47.172Z,2.50
2023-01-13T08:31:16.778Z,2.60
2023-01-13T08:33:44.713Z,2.50
2023-01-13T08:36:15.220Z,2.60
2023-01-13T08:38:42.686Z,2.60
2023-01-13T08:41:15.776Z,2.30
2023-01-13T08:43:44.884Z,2.40
2023-01-13T08:46:12.522Z,2.60
2023-01-13T08:48:40.007Z,2.70
2023-01-13T08:51:09.655Z,2.70
2023-01-13T08:53:37.530Z,1.90
2023-01-13T08:56:11.891Z,2.00
2023-01-13T08:58:42.298Z,2.80
2023-01-13T09:01:21.216Z,2.80
2023-01-13T09:03:48.851Z,2.70
2023-01-13T09:06:16.387Z,2.70
2023-01-13T09:08:44.441Z,2.70
2023-01-13T09:11:38.815Z,2.70
2023-01-13T09:14:06.518Z,2.50
2023-01-13T09:16:38.911Z,2.70
2023-01-13T09:19:06.417Z,2.80
2023-01-13T09:21:34.813Z,2.70
2023-01-13T09:24:07.567Z,2.60
2023-01-13T09:30:47.846Z,3.00
2023-01-13T09:33:35.532Z,2.80
2023-01-13T09:36:05.152Z,2.60
2023-01-13T09:38:32.704Z,2.60
2023-01-13T09:41:00.336Z,2.60
2023-01-13T09:43:56.492Z,1.30
2023-01-13T09:46:45.676Z,2.50
2023-01-13T09:49:26.689Z,2.70
2023-01-13T09:52:15.400Z,2.70
2023-01-13T09:55:03.766Z,2.70
2023-01-13T09:57:37.685Z,2.40
2023-01-13T10:00:11.124Z,2.80
2023-01-13T10:02:54.178Z,2.80
2023-01-13T10:06:04.993Z,2.70
2023-01-13T10:08:37.252Z,2.80
2023-01-13T10:11:32.107Z,2.90
2023-01-13T10:14:03.773Z,2.90
2023-01-13T10:16:51.387Z,2.90
2023-01-13T10:19:44.066Z,3.00
2023-01-13T10:22:35.848Z,3.00
2023-01-13T10:25:41.071Z,1.70
2023-01-13T10:28:14.760Z,2.90
2023-01-13T10:30:44.991Z,3.00
2023-01-13T10:33:17.750Z,2.80
2023-01-13T10:35:50.340Z,3.00
2023-01-13T10:38:42.742Z,3.20
2023-01-13T10:41:16.379Z,3.10
2023-01-13T10:44:04.622Z,3.60
2023-01-13T10:46:35.003Z,3.20
2023-01-13T10:49:18.917Z,3.30
2023-01-13T10:51:47.264Z,3.30
2023-01-13T10:54:20.275Z,3.20
2023-01-13T10:56:50.252Z,3.30
2023-01-13T10:59:27.727Z,3.30
2023-01-13T11:02:23.980Z,3.40
2023-01-13T11:05:25.465Z,3.50
2023-01-13T11:07:58.204Z,3.40
2023-01-13T11:10:31.394Z,3.40
2023-01-13T11:13:06.979Z,2.70
2023-01-13T11:15:56.438Z,2.20
2023-01-13T11:19:13.609Z,3.50
2023-01-13T11:22:01.229Z,3.50
2023-01-13T11:24:40.294Z,3.60
2023-01-13T11:27:13.788Z,3.70
2023-01-13T11:30:18.718Z,3.70
2023-01-13T11:32:59.041Z,3.70
2023-01-13T11:35:27.446Z,3.70
2023-01-13T11:38:02.973Z,4.00
2023-01-13T11:40:40.807Z,3.80
2023-01-13T11:43:20.827Z,3.90
2023-01-13T11:46:04.460Z,3.80
2023-01-13T11:48:35.510Z,3.80
2023-01-13T11:51:24.761Z,3.90
2023-01-13T11:54:52.353Z,3.90
2023-01-13T11:58:01.142Z,3.90
2023-01-13T12:00:59.834Z,3.90
2023-01-13T12:03:59.591Z,3.90
2023-01-13T12:06:41.031Z,3.90
2023-01-13T12:09:21.555Z,3.90
2023-01-13T12:12:31.577Z,4.00
2023-01-13T12:15:26.168Z,3.90
2023-01-13T12:18:34.201Z,3.80
2023-01-13T12:21:24.712Z,2.70
2023-01-13T12:24:30.228Z,3.10
2023-01-13T12:27:01.981Z,4.70
2023-01-13T12:29:36.193Z,4.00
2023-01-13T12:32:08.216Z,4.10
2023-01-13T12:35:08.028Z,4.00
2023-01-13T12:38:18.071Z,3.90
2023-01-13T12:42:01.153Z,3.80
2023-01-13T12:44:28.792Z,4.00
2023-01-13T12:49:50.265Z,4.00
2023-01-13T12:52:20.064Z,4.00
2023-01-13T12:54:47.471Z,4.00
2023-01-13T12:57:35.518Z,4.00
2023-01-13T13:00:03.007Z,4.10
2023-01-13T13:02:31.611Z,4.10
2023-01-13T13:05:24.396Z,4.10
2023-01-13T13:08:05.227Z,4.00
2023-01-13T13:10:36.782Z,4.10
2023-01-13T13:13:20.224Z,3.90
2023-01-13T13:15:50.335Z,4.10
2023-01-13T13:18:17.756Z,4.10
2023-01-13T13:21:07.190Z,4.30
2023-01-13T13:23:38.211Z,4.20
2023-01-13T13:26:26.997Z,4.20
2023-01-13T13:29:20.532Z,4.10
2023-01-13T13:32:19.747Z,4.10
2023-01-13T13:35:07.961Z,4.20
2023-01-13T13:37:59.971Z,4.20
2023-01-13T13:41:01.664Z,3.50
2023-01-13T13:43:56.332Z,4.20
2023-01-13T13:46:45.339Z,4.20
2023-01-13T13:49:16.963Z,4.30
2023-01-13T13:52:00.814Z,4.20
2023-01-13T13:54:28.823Z,4.70
2023-01-13T13:56:56.756Z,3.70
2023-01-13T13:59:26.668Z,4.40
2023-01-13T14:02:04.144Z,4.20
2023-01-13T14:04:34.160Z,4.20
2023-01-13T14:07:07.143Z,4.20
2023-01-13T14:09:45.351Z,4.20
2023-01-13T14:12:23.189Z,4.10
2023-01-13T14:14:51.560Z,3.40
2023-01-13T14:17:30.244Z,4.10
2023-01-13T14:20:06.204Z,4.20
2023-01-13T14:22:34.144Z,3.80
2023-01-13T14:25:02.298Z,4.10
2023-01-13T14:27:31.346Z,4.20
2023-01-13T14:30:02.615Z,4.20
2023-01-13T14:32:36.726Z,4.10
2023-01-13T14:35:08.712Z,4.20
2023-01-13T14:37:39.530Z,4.20
2023-01-13T14:40:07.204Z,4.20
2023-01-13T14:42:35.777Z,4.20
2023-01-13T14:45:03.515Z,4.20
2023-01-13T14:47:34.148Z,4.20
2023-01-13T14:50:16.973Z,3.20
2023-01-13T14:52:50.125Z,4.50
2023-01-13T14:55:30.412Z,4.20
2023-01-13T14:58:23.166Z,4.20
2023-01-13T15:00:52.016Z,4.20
2023-01-13T15:03:21.493Z,4.20
2023-01-13T15:05:53.958Z,4.20
2023-01-13T15:08:34.913Z,4.50
2023-01-13T15:11:05.471Z,4.50
2023-01-13T15:13:46.759Z,4.30
2023-01-13T15:16:26.631Z,4.20
2023-01-13T15:18:58.377Z,4.20
2023-01-13T15:21:26.151Z,4.20
2023-01-13T15:23:53.909Z,4.20
2023-01-13T15:26:27.708Z,4.20
2023-01-13T15:28:57.225Z,4.10
2023-01-13T15:31:25.915Z,4.20
2023-01-13T15:33:53.473Z,4.20
2023-01-13T15:36:28.929Z,4.10
2023-01-13T15:38:57.742Z,4.00
2023-01-13T15:41:44.361Z,4.30
2023-01-13T15:44:34.395Z,4.50
2023-01-13T15:47:07.690Z,4.20
2023-01-13T15:49:41.057Z,4.30
2023-01-13T15:52:23.657Z,4.20
2023-01-13T15:54:52.344Z,4.30
2023-01-13T15:57:26.101Z,4.20
2023-01-13T16:00:00.506Z,4.10
2023-01-13T16:02:30.013Z,4.10
2023-01-13T16:04:58.318Z,4.10
2023-01-13T16:07:26.400Z,4.20
2023-01-13T16:09:56.300Z,4.00
2023-01-13T16:12:24.456Z,4.10
2023-01-13T16:14:52.207Z,4.10
2023-01-13T16:17:25.645Z,4.10
2023-01-13T16:19:56.151Z,4.10
2023-01-13T16:22:24.216Z,4.10
2023-01-13T16:24:55.150Z,4.10
2023-01-13T16:27:25.316Z,4.10
2023-01-13T16:29:54.108Z,4.20
2023-01-13T16:32:21.790Z,4.20
2023-01-13T16:34:50.760Z,3.50
2023-01-13T16:37:22.145Z,3.20
2023-01-13T16:39:52.810Z,4.00
2023-01-13T16:42:21.562Z,3.30
2023-01-13T16:44:50.901Z,4.00
2023-01-13T16:47:19.272Z,4.10
2023-01-13T16:49:47.288Z,2.80
2023-01-13T16:52:15.164Z,4.00
2023-01-13T16:54:43.070Z,3.90
2023-01-13T16:57:13.727Z,3.90
2023-01-13T16:59:41.628Z,3.90
2023-01-13T17:02:14.990Z,3.90
2023-01-13T17:04:43.092Z,3.90
2023-01-13T17:07:17.583Z,3.90
2023-01-13T17:09:46.070Z,3.90
2023-01-13T17:12:14.243Z,3.80
2023-01-13T17:14:44.003Z,3.70
2023-01-13T17:17:28.799Z,3.00
2023-01-13T17:19:56.759Z,3.90
2023-01-13T17:22:24.712Z,3.80
2023-01-13T17:24:53.336Z,3.90
2023-01-13T17:27:22.051Z,3.90
2023-01-13T17:29:50.999Z,4.00
2023-01-13T17:32:20.131Z,3.90
2023-01-13T17:34:48.946Z,3.90
2023-01-13T17:37:17.218Z,3.90
2023-01-13T17:39:47.006Z,3.90
2023-01-13T17:42:16.647Z,3.90
2023-01-13T17:44:44.720Z,3.90
2023-01-13T17:47:13.194Z,3.90
2023-01-13T17:49:43.257Z,3.90
2023-01-13T17:52:13.457Z,3.80
2023-01-13T17:54:44.849Z,3.10
2023-01-13T17:57:12.784Z,3.80
2023-01-13T17:59:42.032Z,3.80
2023-01-13T18:02:12.732Z,4.00
2023-01-13T18:04:42.023Z,3.80
2023-01-13T18:07:10.344Z,3.80
2023-01-13T18:09:38.772Z,3.80
2023-01-13T18:12:06.881Z,3.70
2023-01-13T18:14:35.829Z,3.80
2023-01-13T18:17:04.237Z,3.80
2023-01-13T18:19:51.372Z,3.70
2023-01-13T18:22:38.708Z,3.80
2023-01-13T18:25:28.760Z,3.80
2023-01-13T18:28:02.591Z,3.70
2023-01-13T18:30:30.689Z,3.90
2023-01-13T18:32:58.531Z,3.70
2023-01-13T18:35:26.507Z,3.70
2023-01-13T18:37:58.374Z,3.00
2023-01-13T18:40:26.427Z,3.80
2023-01-13T18:42:59.491Z,3.70
2023-01-13T18:45:30.009Z,3.60
2023-01-13T18:48:02.309Z,3.70
2023-01-13T18:50:31.543Z,3.80
2023-01-13T18:53:00.021Z,3.70
2023-01-13T18:55:29.351Z,3.80
2023-01-13T18:57:57.449Z,3.70
2023-01-13T19:00:37.114Z,4.20
2023-01-13T19:05:34.863Z,3.80
2023-01-13T19:08:04.003Z,3.70
2023-01-13T19:10:32.868Z,3.80
2023-01-13T19:13:01.962Z,3.80
2023-01-13T19:15:30.295Z,3.80
2023-01-13T19:17:58.708Z,3.80
2023-01-13T19:20:26.517Z,2.90
2023-01-13T19:22:54.582Z,3.80
2023-01-13T19:25:23.860Z,3.90
2023-01-13T19:27:52.163Z,3.80
2023-01-13T19:30:20.051Z,3.80
2023-01-13T19:32:49.312Z,3.90
2023-01-13T19:35:18.206Z,3.80
2023-01-13T19:37:45.992Z,3.80
2023-01-13T19:40:14.146Z,3.80
2023-01-13T19:43:05.196Z,3.90
2023-01-13T19:45:35.843Z,3.90
2023-01-13T19:48:05.737Z,3.90
2023-01-13T19:50:39.160Z,3.80
2023-01-13T19:53:08.455Z,3.90
2023-01-13T19:55:39.244Z,3.90
2023-01-13T19:58:08.526Z,3.90
2023-01-13T20:00:36.903Z,3.90
2023-01-13T20:03:08.502Z,3.90
2023-01-13T20:05:36.910Z,3.90
2023-01-13T20:08:04.916Z,2.70
2023-01-13T20:10:32.936Z,3.90
2023-01-13T20:13:01.597Z,3.90
2023-01-13T20:15:33.180Z,3.90
2023-01-13T20:18:04.187Z,3.90
2023-01-13T20:20:32.835Z,3.90
2023-01-13T20:23:00.977Z,3.90
2023-01-13T20:25:30.089Z,3.90
2023-01-13T20:27:59.295Z,3.70
2023-01-13T20:30:27.211Z,4.00
2023-01-13T20:32:56.710Z,4.00
2023-01-13T20:35:27.814Z,4.00
2023-01-13T20:37:58.726Z,4.00
2023-01-13T20:40:27.667Z,4.00
2023-01-13T20:42:57.014Z,3.90
2023-01-13T20:45:29.685Z,3.10
2023-01-13T20:47:57.963Z,4.00
2023-01-13T20:50:26.132Z,4.00
2023-01-13T20:52:54.436Z,4.10
2023-01-13T20:55:22.584Z,4.00
2023-01-13T20:57:51.094Z,3.00
2023-01-13T21:00:19.875Z,3.90
2023-01-13T21:02:48.230Z,4.00
2023-01-13T21:05:16.381Z,3.30
2023-01-13T21:07:44.108Z,4.00
2023-01-13T21:10:14.468Z,3.80
2023-01-13T21:13:03.561Z,4.00
2023-01-13T21:15:35.099Z,4.00
2023-01-13T21:18:21.644Z,4.00
2023-01-13T21:20:51.189Z,3.90
2023-01-13T21:23:19.119Z,4.10
2023-01-13T21:25:47.420Z,4.40
2023-01-13T21:28:16.911Z,4.00
2023-01-13T21:30:45.748Z,4.10
2023-01-13T21:33:14.631Z,3.60
2023-01-13T21:46:35.607Z,4.10
2023-01-13T21:49:04.372Z,4.10
2023-01-13T21:51:35.355Z,4.10
2023-01-13T21:54:03.102Z,3.90
2023-01-13T21:56:30.606Z,4.00
2023-01-13T21:59:00.407Z,4.00
2023-01-13T22:01:28.056Z,4.80
2023-01-13T22:04:13.379Z,3.90
2023-01-13T22:06:40.938Z,4.00
2023-01-13T22:09:08.513Z,5.30
2023-01-13T22:11:36.258Z,4.10
2023-01-13T22:14:07.312Z,4.20
2023-01-13T22:16:49.142Z,4.10
2023-01-13T22:19:18.345Z,4.20
2023-01-13T22:21:45.975Z,4.00
2023-01-13T22:24:14.545Z,4.20
2023-01-13T22:26:42.293Z,4.10
2023-01-13T22:29:14.539Z,4.10
2023-01-13T22:31:42.361Z,4.10
2023-01-13T22:34:12.817Z,4.10
2023-01-13T22:36:40.422Z,4.10
2023-01-13T22:39:08.639Z,4.10
2023-01-13T22:41:36.400Z,4.20
2023-01-13T22:44:04.120Z,4.10
2023-01-13T22:46:34.909Z,4.10
2023-01-13T22:49:02.575Z,4.00
2023-01-13T22:51:32.979Z,4.20
2023-01-13T22:54:02.775Z,4.20
